Fallsburg, Kentucky
Current Conditions -  °F | °C
As of 2:35 AM on Saturday 25 Oct 2014 (Local Time) from KSJS Reporting Station
Clear Clear  
Wind Chill: 42°   Ceiling: Unl
Heat Index: 44°   Visibility: 10mi
Dew Point: 42°   Wind: 5mph
Humidity: 92%   Direction: 220°SW
Pressure: 30.07"   Gusts: NA
Location:  37.9848°N, 82.5857°W
Report Text: KSJS 250635Z AUTO 22004KT 10SM CLR 07/06 A3007 RMK AO2 T00670055
Loading
Personal Weather Stations






























Interactive Weather Map
Tropical Storm Tracking
New forecast layout! Learn more

10-Day Weather Forecast

Advertisements
Track Severe Weather on mobile